• Join FlightAware (Why Join?)
  • Login
  • US Flag 
08:23AM EDT


 

Airport Tracker/Info


-or-


 

Live Flight TrackerFlight Track Log ✈ AWI3551 ✈ 03-Jul-2013 ✈ KBUF - KPHL

Flight Track Log - Related Links

Times and Time Zones

All times are in EDT time to prevent confusion due to time zone crossing. See the AWI3551 flight status page for this flight to view local times or setup timezone preferences in your user account.

Time Position Orientation Groundspeed Altitude Reporting Facility
EDT Latitude Longitude Course Direction KTS MPH feet Rate Location/Type
05:36AM 42.9333 -78.7500 174° South 147 169 1,500  Level Buffalo TRACON
05:37AM 42.8833 -78.7667 194° South 177 204 2,900 1,680 Climbing Buffalo TRACON
05:38AM 42.5978 -78.6795 172° South  Level FlightAware Approximate
05:38AM 42.8147 -78.7578 175° South 221 254 5,200  Level Cleveland Center
05:39AM 42.4863 -78.6588 173° South  Level FlightAware Approximate
05:39AM 42.7436 -78.7456 173° South 241 277 6,900  Level Cleveland Center
05:40AM 42.3741 -78.6500 180° South  Level FlightAware Approximate
05:40AM 42.6747 -78.7278 169° South 268 308 8,700  Level Cleveland Center
05:41AM 42.2784 -78.6374 174° South  Level FlightAware Approximate
05:41AM 42.6014 -78.7131 172° South 277 319 10,500  Level Cleveland Center
05:42AM 42.5261 -78.7011 173° South 277 319 12,200 1,620 Climbing Cleveland Center
05:43AM 42.4467 -78.6839 171° South 282 325 13,800 1,860 Climbing Cleveland Center
05:44AM 42.3650 -78.6694 173° South 289 333 16,000 2,040 Climbing Cleveland Center
05:45AM 42.2836 -78.6550 173° South 295 339 17,900 1,560 Climbing Cleveland Center
05:46AM 42.1978 -78.6381 172° South 295 339 19,200 1,380 Climbing Cleveland Center
05:47AM 42.1039 -78.6269 175° South 308 354 20,700 900 Climbing Cleveland Center
05:48AM 42.0164 -78.6239 179° South 313 360 21,000 120 Climbing Cleveland Center
05:49AM 41.9267 -78.6239 180° South 313 360 21,000  Level Cleveland Center
05:50AM 41.8369 -78.6211 179° South 318 366 21,000  Level Cleveland Center
05:51AM 41.7467 -78.5906 166° South 328 377 21,000  Level Cleveland Center
05:52AM 41.6603 -78.5292 152° Southeast 334 384 21,000  Level Cleveland Center
05:53AM 41.5736 -78.4653 151° Southeast 345 397 21,000  Level Cleveland Center
05:55AM 41.4206 -78.3575 152° Southeast 356 410 21,000  Level New York Center
05:56AM 41.3394 -78.2931 149° Southeast 361 415 21,000  Level New York Center
05:57AM 41.2494 -78.2306 152° Southeast 361 415 21,000  Level New York Center
05:58AM 41.1597 -78.1656 151° Southeast 361 415 21,000  Level New York Center
05:59AM 41.0681 -78.1006 152° Southeast 366 421 21,000  Level New York Center
06:00AM 40.9800 -78.0389 152° Southeast 366 421 21,000  Level New York Center
06:01AM 40.8950 -77.9639 146° Southeast 366 421 21,000 -540 Level New York Center
06:02AM 40.8264 -77.8578 130° Southeast 365 420 20,000 -1,080 Descending New York Center
06:03AM 40.7614 -77.7581 131° Southeast 365 420 18,900 -1,020 Descending New York Center
06:04AM 40.6944 -77.6581 131° Southeast 365 420 18,000 -480 Descending New York Center
06:05AM 40.6289 -77.5611 132° Southeast 365 420 18,000  Level New York Center
06:06AM 40.5578 -77.4558 132° Southeast 352 405 18,000  Level New York Center
06:07AM 40.5022 -77.3711 131° Southeast 352 405 18,000  Level New York Center
06:08AM 40.4375 -77.2614 128° Southeast 347 399 18,000  Level New York Center
06:09AM 40.4122 -77.1472 106° East 347 399 18,000 -120 Level New York Center
06:10AM 40.3803 -77.0081 107° East 360 414 17,800 -660 Descending New York Center
06:11AM 40.3494 -76.8772 107° East 367 422 16,700 -1,140 Descending New York Center
06:12AM 40.3225 -76.7550 106° East 367 422 15,600 -900 Descending New York Center
06:13AM 40.2967 -76.6464 107° East 354 407 15,000 -960 Descending New York Center
06:14AM 40.2692 -76.5272 107° East 349 402 13,700 -1,500 Descending New York Center
06:15AM 40.2378 -76.3994 108° East 344 396 12,100 -1,500 Descending New York Center
06:16AM 40.2117 -76.2858 107° East 332 382 10,800 -1,080 Descending New York Center
06:17AM 40.1872 -76.1833 107° East 315 362 10,000 -600 Descending New York Center
06:18AM 40.1647 -76.0839 106° East 315 362 9,600 -960 Descending New York Center
06:19AM 40.1364 -75.9703 108° East 309 356 8,200 -840 Descending New York Center
06:20AM 40.1097 -75.8678 109° East 299 344 8,000 -120 Descending New York Center
06:21AM 40.0886 -75.7767 107° East 293 337 8,000  Level New York Center
06:22AM 40.0769 -75.6567 97° East 293 337 8,000 -300 Level New York Center
06:23AM 40.0767 -75.5617 90° East 293 337 7,500 -540 Descending New York Center
06:24AM 40.1347 -75.4650 52° Northeast 277 319 7,000 -300 Descending New York Center
06:25AM 40.1922 -75.3847 47° Northeast 293 337 7,000  Level New York Center
06:26AM 40.2247 -75.2944 65° Northeast 312 359 7,000 -420 Level New York Center
06:27AM 40.1561 -75.2358 147° Southeast 200 230 6,200 -660 Descending New York Center
06:27AM 40.1167 -75.2167 160° South 254 292 6,000 -120 Descending Philadelphia TRACON
06:28AM 40.0333 -75.2000 171° South 254 292 6,000  Level Philadelphia TRACON
06:29AM 39.9833 -75.1667 153° Southeast 228 262 6,000  Level Philadelphia TRACON
06:30AM 40.0000 -75.0833 75° East 241 277 6,000 -300 Level Philadelphia TRACON
06:31AM 40.0167 -75.0000 75° East 209 241 5,400 -540 Descending Philadelphia TRACON
06:32AM 40.0333 -74.9333 72° East 207 238 5,000 -240 Descending Philadelphia TRACON
06:33AM 40.0500 -74.8500 75° East 209 241 5,000 -300 Level Philadelphia TRACON
06:34AM 40.0333 -74.8000 114° Southeast 187 215 4,500 -480 Descending Philadelphia TRACON
06:35AM 39.9833 -74.8167 194° South 153 176 4,000 -240 Descending Philadelphia TRACON
06:36AM 39.9500 -74.8500 217° Southwest 157 181 4,000  Level Philadelphia TRACON
06:38AM 39.9245 -74.9789 247° West  Level Estimated
06:38AM 39.9333 -74.9667 247° West 162 186 4,000  Level Philadelphia TRACON
06:39AM 39.9167 -75.0167 247° West 158 182 3,200 -900 Descending Philadelphia TRACON
06:40AM 39.9000 -75.0667 247° West 157 181 2,400 -840 Descending Philadelphia TRACON
06:41AM 39.9000 -75.1167 270° West 153 176 1,600 -780 Descending Philadelphia TRACON
06:42AM 39.8833 -75.1667 247° West 139 160 1,000 -720 Descending Philadelphia TRACON
06:43AM 39.8833 -75.2167 270° West 131 151 300 -720 Descending Philadelphia TRACON